createdAt,value
2019-05-14T00:00:27.302Z,7.00
2019-05-14T00:02:57.774Z,6.90
2019-05-14T00:05:28.228Z,7.00
2019-05-14T00:07:58.723Z,6.90
2019-05-14T00:10:29.177Z,6.90
2019-05-14T00:13:01.512Z,7.00
2019-05-14T00:15:32.358Z,7.00
2019-05-14T00:18:03.003Z,7.10
2019-05-14T00:20:33.456Z,7.00
2019-05-14T00:23:03.931Z,7.10
2019-05-14T00:25:34.391Z,7.20
2019-05-14T00:28:04.939Z,7.30
2019-05-14T00:30:35.391Z,7.40
2019-05-14T00:33:05.871Z,7.40
2019-05-14T00:35:36.358Z,7.40
2019-05-14T00:38:06.826Z,7.40
2019-05-14T00:40:37.290Z,7.40
2019-05-14T00:43:07.842Z,7.40
2019-05-14T00:45:38.310Z,7.40
2019-05-14T00:48:08.791Z,7.40
2019-05-14T00:50:39.230Z,7.40
2019-05-14T00:53:11.822Z,7.50
2019-05-14T00:55:42.140Z,7.50
2019-05-14T00:58:12.719Z,7.50
2019-05-14T01:00:43.260Z,7.50
2019-05-14T01:03:13.714Z,7.50
2019-05-14T01:05:44.722Z,7.60
2019-05-14T01:08:15.156Z,7.60
2019-05-14T01:10:45.643Z,7.70
2019-05-14T01:13:16.104Z,7.70
2019-05-14T01:15:46.593Z,7.70
2019-05-14T01:18:17.033Z,7.70
2019-05-14T01:20:47.518Z,7.70
2019-05-14T01:23:18.030Z,7.80
2019-05-14T01:25:48.533Z,7.70
2019-05-14T01:28:18.984Z,7.70
2019-05-14T01:30:51.732Z,7.80
2019-05-14T01:33:21.750Z,7.80
2019-05-14T01:35:52.238Z,7.80
2019-05-14T01:38:22.675Z,7.90
2019-05-14T01:40:53.170Z,8.00
2019-05-14T01:43:23.647Z,8.00
2019-05-14T01:45:54.094Z,8.00
2019-05-14T01:48:24.586Z,8.00
2019-05-14T01:50:55.046Z,8.00
2019-05-14T01:53:25.537Z,8.10
2019-05-14T01:55:55.988Z,8.10
2019-05-14T01:58:26.474Z,8.20
2019-05-14T02:00:56.998Z,8.20
2019-05-14T02:03:27.481Z,8.20
2019-05-14T02:05:57.937Z,8.20
2019-05-14T02:08:28.416Z,8.10
2019-05-14T02:10:58.902Z,8.10
2019-05-14T02:13:31.913Z,8.20
2019-05-14T02:16:02.178Z,8.20
2019-05-14T02:18:33.253Z,8.20
2019-05-14T02:21:03.819Z,8.10
2019-05-14T02:23:34.276Z,8.20
2019-05-14T02:26:04.819Z,8.10
2019-05-14T02:28:35.285Z,8.00
2019-05-14T02:31:09.142Z,7.90
2019-05-14T02:33:39.634Z,7.90
2019-05-14T02:36:10.536Z,7.90
2019-05-14T02:38:41.097Z,7.90
2019-05-14T02:41:11.655Z,7.90
2019-05-14T02:43:42.128Z,7.90
2019-05-14T02:46:17.183Z,7.90
2019-05-14T02:48:44.841Z,7.90
2019-05-14T02:51:15.283Z,7.90
2019-05-14T02:53:45.761Z,7.90
2019-05-14T02:56:16.222Z,7.90
2019-05-14T02:58:49.794Z,7.80
2019-05-14T03:01:20.050Z,7.80
2019-05-14T03:03:50.786Z,8.70
2019-05-14T03:06:21.358Z,7.60
2019-05-14T03:08:51.835Z,7.60
2019-05-14T03:11:22.280Z,7.60
2019-05-14T03:13:52.899Z,7.50
2019-05-14T03:16:30.972Z,7.50
2019-05-14T03:18:55.529Z,7.50
2019-05-14T03:21:26.086Z,7.50
2019-05-14T03:24:00.438Z,7.40
2019-05-14T03:26:29.663Z,7.40
2019-05-14T03:29:00.398Z,7.40
2019-05-14T03:31:33.282Z,7.40
2019-05-14T03:34:03.963Z,7.40
2019-05-14T03:36:35.589Z,7.30
2019-05-14T03:39:10.562Z,7.30
2019-05-14T03:41:40.175Z,7.20
2019-05-14T03:44:10.856Z,7.20
2019-05-14T03:46:51.271Z,7.20
2019-05-14T03:49:13.649Z,7.20
2019-05-14T03:51:44.202Z,7.20
2019-05-14T03:54:14.653Z,7.30
2019-05-14T03:56:45.158Z,7.30
2019-05-14T03:59:15.848Z,7.30
2019-05-14T04:01:46.458Z,7.20
2019-05-14T04:04:19.455Z,7.20
2019-05-14T04:06:50.567Z,7.20
2019-05-14T04:09:21.969Z,7.20
2019-05-14T04:11:54.355Z,7.20
2019-05-14T04:14:29.183Z,7.30
2019-05-14T04:17:09.717Z,7.20
2019-05-14T04:19:39.147Z,7.30
2019-05-14T04:22:10.303Z,7.30
2019-05-14T04:24:41.875Z,7.30
2019-05-14T04:27:14.197Z,7.20
2019-05-14T04:29:44.645Z,7.20
2019-05-14T04:32:15.703Z,7.20
2019-05-14T04:34:49.473Z,7.20
2019-05-14T04:37:20.039Z,7.20
2019-05-14T04:39:50.958Z,7.20
2019-05-14T04:42:21.567Z,7.20
2019-05-14T04:44:52.125Z,7.20
2019-05-14T04:47:32.292Z,7.20
2019-05-14T04:49:54.823Z,7.20
2019-05-14T04:52:25.301Z,7.20
2019-05-14T04:54:59.177Z,7.20
2019-05-14T04:57:29.990Z,7.20
2019-05-14T05:00:00.856Z,7.10
2019-05-14T05:02:32.380Z,7.10
2019-05-14T05:05:02.870Z,7.20
2019-05-14T05:07:33.320Z,7.10
2019-05-14T05:10:05.930Z,7.10
2019-05-14T05:12:38.682Z,7.10
2019-05-14T05:15:09.728Z,7.10
2019-05-14T05:17:48.112Z,7.10
2019-05-14T05:20:12.496Z,7.20
2019-05-14T05:22:42.981Z,7.10
2019-05-14T05:25:14.368Z,7.10
2019-05-14T05:27:44.843Z,7.10
2019-05-14T05:30:15.458Z,7.10
2019-05-14T05:32:46.090Z,7.20
2019-05-14T05:35:18.631Z,7.10
2019-05-14T05:37:49.167Z,7.10
2019-05-14T05:40:19.915Z,7.20
2019-05-14T05:42:50.397Z,7.30
2019-05-14T05:45:21.023Z,7.30
2019-05-14T05:47:57.837Z,7.30
2019-05-14T05:50:23.738Z,7.40
2019-05-14T05:52:54.187Z,7.40
2019-05-14T05:55:24.673Z,7.40
2019-05-14T05:57:55.137Z,7.40
2019-05-14T06:00:35.665Z,7.40
2019-05-14T06:03:10.183Z,7.40
2019-05-14T06:05:39.076Z,7.30
2019-05-14T06:08:09.725Z,7.40
2019-05-14T06:10:40.220Z,7.40
2019-05-14T06:13:13.834Z,7.40
2019-05-14T06:15:48.172Z,7.40
2019-05-14T06:18:21.088Z,7.40
2019-05-14T06:20:49.438Z,7.30
2019-05-14T06:23:19.788Z,7.30
2019-05-14T06:25:50.257Z,7.40
2019-05-14T06:28:21.135Z,7.40
2019-05-14T06:30:51.799Z,7.40
2019-05-14T06:33:22.295Z,7.50
2019-05-14T06:35:52.771Z,7.60
2019-05-14T06:38:23.297Z,7.70
2019-05-14T06:40:53.777Z,7.70
2019-05-14T06:43:24.236Z,7.60
2019-05-14T06:45:54.708Z,7.50
2019-05-14T06:48:30.719Z,7.50
2019-05-14T06:50:58.321Z,7.50
2019-05-14T06:53:29.384Z,7.50
2019-05-14T06:55:59.959Z,7.50
2019-05-14T06:58:30.454Z,7.50
2019-05-14T07:01:00.913Z,7.60
2019-05-14T07:03:31.380Z,7.60
2019-05-14T07:06:01.826Z,7.70
2019-05-14T07:08:32.307Z,7.60
2019-05-14T07:11:02.769Z,7.60
2019-05-14T07:13:34.803Z,7.70
2019-05-14T07:16:05.315Z,7.70
2019-05-14T07:18:46.455Z,7.70
2019-05-14T07:21:08.337Z,7.80
2019-05-14T07:23:38.991Z,7.80
2019-05-14T07:26:09.465Z,7.90
2019-05-14T07:28:42.498Z,8.00
2019-05-14T07:31:12.132Z,8.00
2019-05-14T07:33:42.601Z,8.10
2019-05-14T07:36:13.150Z,8.20
2019-05-14T07:38:43.615Z,8.20
2019-05-14T07:41:14.124Z,8.20
2019-05-14T07:43:44.601Z,8.20
2019-05-14T07:46:15.057Z,8.30
2019-05-14T07:49:00.604Z,8.30
2019-05-14T07:51:19.066Z,8.50
2019-05-14T07:53:49.782Z,8.60
2019-05-14T07:56:23.721Z,8.70
2019-05-14T07:59:02.001Z,8.60
2019-05-14T08:01:30.992Z,8.60
2019-05-14T08:04:01.468Z,8.60
2019-05-14T08:06:39.395Z,8.70
2019-05-14T08:09:05.832Z,8.70
2019-05-14T08:11:38.576Z,8.70
2019-05-14T08:14:09.014Z,8.70
2019-05-14T08:16:40.067Z,8.60
2019-05-14T08:19:24.154Z,8.60
2019-05-14T08:21:42.737Z,8.60
2019-05-14T08:24:15.378Z,8.60
2019-05-14T08:26:45.390Z,8.40
2019-05-14T08:29:17.980Z,8.40
2019-05-14T08:31:48.847Z,8.30
2019-05-14T08:34:19.457Z,8.30
2019-05-14T08:36:49.948Z,8.20
2019-05-14T08:39:20.411Z,8.20
2019-05-14T08:41:59.609Z,8.10
2019-05-14T08:44:23.067Z,8.00
2019-05-14T08:46:53.550Z,8.00
2019-05-14T08:49:37.745Z,8.00
2019-05-14T08:51:56.198Z,7.90
2019-05-14T08:54:28.361Z,7.90
2019-05-14T08:56:59.091Z,7.80
2019-05-14T08:59:30.336Z,7.80
2019-05-14T09:02:06.199Z,7.90
2019-05-14T09:04:34.345Z,7.90
2019-05-14T09:07:04.810Z,8.00
2019-05-14T09:09:35.302Z,8.10
2019-05-14T09:12:12.161Z,8.10
2019-05-14T09:14:38.884Z,8.20
2019-05-14T09:17:09.983Z,8.30
2019-05-14T09:19:57.641Z,8.40
2019-05-14T09:22:13.465Z,8.40
2019-05-14T09:24:43.985Z,8.40
2019-05-14T09:27:14.484Z,8.30
2019-05-14T09:29:44.938Z,8.20
2019-05-14T09:32:15.442Z,8.20
2019-05-14T09:34:48.486Z,8.20
2019-05-14T09:37:19.292Z,8.20
2019-05-14T09:39:50.050Z,8.10
2019-05-14T09:42:20.513Z,8.00
2019-05-14T09:44:51.010Z,8.00
2019-05-14T09:47:21.469Z,8.10
2019-05-14T09:49:51.954Z,8.10
2019-05-14T09:52:22.430Z,8.00
2019-05-14T09:54:52.893Z,8.00
2019-05-14T09:57:24.656Z,8.00
2019-05-14T09:59:55.687Z,8.00
2019-05-14T10:02:26.172Z,7.90
2019-05-14T10:04:59.582Z,7.80
2019-05-14T10:07:28.850Z,7.80
2019-05-14T10:09:59.347Z,7.60
2019-05-14T10:12:29.832Z,7.50
2019-05-14T10:15:00.314Z,7.40
2019-05-14T10:17:30.768Z,7.50
2019-05-14T10:20:01.259Z,7.50
2019-05-14T10:22:31.715Z,7.50
2019-05-14T10:25:02.193Z,7.60
2019-05-14T10:27:33.511Z,7.60
2019-05-14T10:30:10.058Z,7.60
2019-05-14T10:32:41.299Z,7.60
2019-05-14T10:35:11.937Z,7.70
2019-05-14T10:37:42.479Z,7.70
2019-05-14T10:40:13.095Z,7.70
2019-05-14T10:42:43.662Z,7.70
2019-05-14T10:45:14.831Z,7.70
2019-05-14T10:47:45.318Z,7.70
2019-05-14T10:50:18.167Z,7.70
2019-05-14T10:52:48.837Z,7.70
2019-05-14T10:55:19.535Z,7.80
2019-05-14T10:57:54.078Z,7.80
2019-05-14T11:00:22.479Z,7.80
2019-05-14T11:02:52.939Z,7.80
2019-05-14T11:05:23.485Z,7.80
2019-05-14T11:07:53.951Z,7.80
2019-05-14T11:10:24.436Z,7.70
2019-05-14T11:12:55.273Z,7.80
2019-05-14T11:15:28.354Z,7.80
2019-05-14T11:17:58.111Z,7.90
2019-05-14T11:20:31.176Z,7.90
2019-05-14T11:23:00.880Z,7.90
2019-05-14T11:25:31.340Z,8.00
2019-05-14T11:28:01.901Z,8.10
2019-05-14T11:30:32.723Z,8.10
2019-05-14T11:33:03.187Z,8.20
2019-05-14T11:35:33.668Z,8.20
2019-05-14T11:38:04.143Z,8.20
2019-05-14T11:40:34.604Z,8.20
2019-05-14T11:43:05.147Z,8.10
2019-05-14T11:45:35.769Z,8.00
2019-05-14T11:48:06.230Z,7.90
2019-05-14T11:50:36.736Z,7.90
2019-05-14T11:53:08.469Z,7.90
2019-05-14T11:55:39.176Z,8.00
2019-05-14T11:58:09.618Z,8.00
2019-05-14T12:00:40.174Z,8.10
2019-05-14T12:03:10.619Z,8.10
2019-05-14T12:05:41.112Z,8.10
2019-05-14T12:08:11.692Z,8.10
2019-05-14T12:10:42.118Z,8.20
2019-05-14T12:13:12.619Z,8.10
2019-05-14T12:15:43.093Z,8.00
2019-05-14T12:18:13.574Z,8.00
2019-05-14T12:20:44.137Z,8.00
2019-05-14T12:23:14.592Z,8.00
2019-05-14T12:25:48.910Z,8.00
2019-05-14T12:28:19.110Z,8.00
2019-05-14T12:30:49.924Z,7.90
2019-05-14T12:33:20.384Z,7.90
2019-05-14T12:35:51.441Z,7.80
2019-05-14T12:38:21.895Z,7.70
2019-05-14T12:40:52.376Z,7.70
2019-05-14T12:43:22.863Z,7.70
2019-05-14T12:45:53.456Z,7.70
2019-05-14T12:48:23.912Z,7.70
2019-05-14T12:50:54.394Z,7.70
2019-05-14T12:53:24.848Z,7.60
2019-05-14T12:55:55.358Z,7.60
2019-05-14T12:58:28.363Z,7.60
2019-05-14T13:00:59.483Z,7.60
2019-05-14T13:03:30.102Z,7.60
2019-05-14T13:06:00.607Z,7.60
2019-05-14T13:08:31.056Z,7.60
2019-05-14T13:11:01.557Z,7.60
2019-05-14T13:13:32.057Z,7.50
2019-05-14T13:16:04.344Z,7.60
2019-05-14T13:18:34.799Z,7.60
2019-05-14T13:21:05.365Z,7.60
2019-05-14T13:23:38.082Z,7.60
2019-05-14T13:26:10.483Z,7.60
2019-05-14T13:28:40.469Z,8.60
2019-05-14T13:31:11.069Z,7.60
2019-05-14T13:33:41.514Z,7.70
2019-05-14T13:36:12.076Z,7.70
2019-05-14T13:38:42.531Z,7.80
2019-05-14T13:41:13.025Z,7.90
2019-05-14T13:43:43.476Z,7.90
2019-05-14T13:46:15.219Z,8.00
2019-05-14T13:48:45.989Z,8.00
2019-05-14T13:51:16.476Z,8.00
2019-05-14T13:53:49.649Z,8.10
2019-05-14T13:56:19.290Z,8.10
2019-05-14T13:58:49.747Z,8.10
2019-05-14T14:01:20.246Z,8.20
2019-05-14T14:04:03.693Z,8.20
2019-05-14T14:06:22.935Z,8.10
2019-05-14T14:08:55.052Z,8.10
2019-05-14T14:11:25.579Z,8.00
2019-05-14T14:13:58.322Z,8.00
2019-05-14T14:16:28.699Z,7.90
2019-05-14T14:19:03.626Z,7.90
2019-05-14T14:21:31.435Z,8.00
2019-05-14T14:24:01.941Z,8.00
2019-05-14T14:26:32.444Z,8.00
2019-05-14T14:29:02.889Z,8.00
2019-05-14T14:31:33.437Z,8.00
2019-05-14T14:34:03.885Z,8.00
2019-05-14T14:36:34.393Z,8.00
2019-05-14T14:39:09.746Z,8.00
2019-05-14T14:41:40.602Z,8.10
2019-05-14T14:44:11.075Z,8.00
2019-05-14T14:46:41.572Z,8.10
2019-05-14T14:49:12.057Z,8.10
2019-05-14T14:51:45.121Z,8.10
2019-05-14T14:54:16.572Z,8.10
2019-05-14T14:56:48.738Z,8.10
2019-05-14T14:59:19.467Z,8.10
2019-05-14T15:01:50.415Z,8.10
2019-05-14T15:04:21.103Z,8.10
2019-05-14T15:06:51.636Z,8.10
2019-05-14T15:09:22.695Z,8.10
2019-05-14T15:11:53.150Z,7.30
2019-05-14T15:14:23.637Z,8.00
2019-05-14T15:16:54.166Z,8.00
2019-05-14T15:19:25.236Z,8.10
2019-05-14T15:21:55.709Z,8.00
2019-05-14T15:24:27.164Z,8.00
2019-05-14T15:27:06.913Z,8.00
2019-05-14T15:29:30.476Z,8.10
2019-05-14T15:32:00.929Z,8.00
2019-05-14T15:34:31.410Z,8.00
2019-05-14T15:37:01.859Z,8.00
2019-05-14T15:39:32.664Z,8.00
2019-05-14T15:42:05.084Z,8.00
2019-05-14T15:44:47.380Z,8.00
2019-05-14T15:47:11.522Z,7.90
2019-05-14T15:49:39.700Z,7.90
2019-05-14T15:52:11.855Z,7.90
2019-05-14T15:54:47.105Z,7.80
2019-05-14T15:57:14.557Z,7.80
2019-05-14T15:59:45.588Z,7.80
2019-05-14T16:02:16.156Z,7.80
2019-05-14T16:04:47.150Z,7.80
2019-05-14T16:07:18.760Z,7.80
2019-05-14T16:09:49.667Z,7.80
2019-05-14T16:12:20.198Z,7.80
2019-05-14T16:14:50.728Z,7.80
2019-05-14T16:17:24.785Z,7.80
2019-05-14T16:19:54.144Z,7.90
2019-05-14T16:22:24.594Z,7.90
2019-05-14T16:24:57.013Z,7.90
2019-05-14T16:27:29.761Z,7.90
2019-05-14T16:29:59.429Z,7.90
2019-05-14T16:32:29.990Z,7.90
2019-05-14T16:35:00.438Z,7.90
2019-05-14T16:37:30.943Z,8.00
2019-05-14T16:40:01.486Z,7.90
2019-05-14T16:42:32.634Z,7.90
2019-05-14T16:45:03.240Z,7.90
2019-05-14T16:47:33.793Z,7.90
2019-05-14T16:50:08.896Z,7.90
2019-05-14T16:52:42.403Z,7.80
2019-05-14T16:55:23.391Z,7.80
2019-05-14T16:57:44.750Z,7.80
2019-05-14T17:00:18.359Z,7.80
2019-05-14T17:02:48.364Z,7.80
2019-05-14T17:05:18.961Z,7.80
2019-05-14T17:07:49.447Z,7.80
2019-05-14T17:10:19.999Z,7.80
2019-05-14T17:12:56.957Z,7.80
2019-05-14T17:15:22.653Z,7.80
2019-05-14T17:17:54.488Z,7.80
2019-05-14T17:20:24.983Z,7.70
2019-05-14T17:22:56.417Z,7.70
2019-05-14T17:25:30.386Z,7.70
2019-05-14T17:27:59.495Z,7.70
2019-05-14T17:30:30.258Z,7.70
2019-05-14T17:33:02.472Z,7.70
2019-05-14T17:35:34.176Z,7.70
2019-05-14T17:38:04.663Z,7.70
2019-05-14T17:40:35.192Z,7.70
2019-05-14T17:43:08.722Z,7.80
2019-05-14T17:45:40.407Z,7.80
2019-05-14T17:48:10.877Z,7.80
2019-05-14T17:50:44.741Z,7.80
2019-05-14T17:53:15.083Z,7.80
2019-05-14T17:55:48.180Z,7.80
2019-05-14T17:58:18.864Z,7.80
2019-05-14T18:00:49.620Z,7.80
2019-05-14T18:03:20.109Z,7.70
2019-05-14T18:05:50.560Z,7.70
2019-05-14T18:08:22.599Z,7.70
2019-05-14T18:10:53.100Z,7.70
2019-05-14T18:13:23.845Z,7.70
2019-05-14T18:15:54.894Z,7.70
2019-05-14T18:18:25.780Z,7.70
2019-05-14T18:20:58.239Z,7.70
2019-05-14T18:23:28.958Z,7.70
2019-05-14T18:26:07.879Z,7.70
2019-05-14T18:28:32.003Z,7.60
2019-05-14T18:31:02.551Z,7.60
2019-05-14T18:33:33.083Z,7.60
2019-05-14T18:36:05.100Z,7.60
2019-05-14T18:38:35.599Z,7.60
2019-05-14T18:41:08.262Z,7.60
2019-05-14T18:43:38.417Z,8.40
2019-05-14T18:46:09.308Z,7.60
2019-05-14T18:48:39.885Z,7.60
2019-05-14T18:51:10.609Z,7.60
2019-05-14T18:53:41.471Z,7.50
2019-05-14T18:56:20.172Z,7.60
2019-05-14T18:58:44.470Z,7.60
2019-05-14T19:01:14.983Z,7.50
2019-05-14T19:03:45.609Z,7.50
2019-05-14T19:06:18.238Z,7.50
2019-05-14T19:08:48.821Z,7.50
2019-05-14T19:11:19.585Z,7.50
2019-05-14T19:13:50.310Z,7.50
2019-05-14T19:16:22.310Z,7.50
2019-05-14T19:18:53.078Z,7.50
2019-05-14T19:21:23.881Z,7.50
2019-05-14T19:23:54.837Z,7.50
2019-05-14T19:26:36.620Z,7.60
2019-05-14T19:28:58.902Z,7.60
2019-05-14T19:31:29.853Z,7.60
2019-05-14T19:34:02.461Z,7.60
2019-05-14T19:36:33.439Z,7.50
2019-05-14T19:39:05.140Z,7.50
2019-05-14T19:41:38.952Z,7.60
2019-05-14T19:44:10.028Z,7.60
2019-05-14T19:46:41.312Z,7.60
2019-05-14T19:49:11.851Z,7.60
2019-05-14T19:51:42.608Z,7.60
2019-05-14T19:54:13.377Z,7.60
2019-05-14T19:56:53.337Z,7.50
2019-05-14T19:59:18.286Z,7.60
2019-05-14T20:01:49.166Z,7.50
2019-05-14T20:04:19.926Z,7.50
2019-05-14T20:06:50.867Z,7.50
2019-05-14T20:09:21.693Z,7.50
2019-05-14T20:11:52.428Z,7.50
2019-05-14T20:14:23.036Z,7.50
2019-05-14T20:16:53.707Z,7.50
2019-05-14T20:19:24.715Z,7.50
2019-05-14T20:21:55.579Z,7.50
2019-05-14T20:24:28.312Z,7.50
2019-05-14T20:27:08.193Z,7.50
2019-05-14T20:29:31.366Z,7.50
2019-05-14T20:32:02.084Z,7.50
2019-05-14T20:34:32.781Z,7.50
2019-05-14T20:37:03.289Z,7.40
2019-05-14T20:39:33.737Z,7.50
2019-05-14T20:42:04.292Z,7.50
2019-05-14T20:44:35.313Z,7.50
2019-05-14T20:47:06.026Z,7.50
2019-05-14T20:49:38.081Z,7.40
2019-05-14T20:52:08.825Z,7.40
2019-05-14T20:54:39.300Z,7.40
2019-05-14T20:57:23.371Z,7.40
2019-05-14T20:59:41.999Z,7.50
2019-05-14T21:02:12.531Z,7.50
2019-05-14T21:04:43.040Z,7.60
2019-05-14T21:07:13.524Z,7.70
2019-05-14T21:09:43.978Z,7.70
2019-05-14T21:12:14.475Z,7.70
2019-05-14T21:14:44.925Z,7.70
2019-05-14T21:17:15.415Z,7.70
2019-05-14T21:19:49.225Z,7.70
2019-05-14T21:22:19.579Z,7.80
2019-05-14T21:24:53.173Z,7.80
2019-05-14T21:27:22.217Z,7.80
2019-05-14T21:29:52.698Z,7.80
2019-05-14T21:32:23.158Z,7.80
2019-05-14T21:34:53.647Z,7.90
2019-05-14T21:37:25.137Z,7.90
2019-05-14T21:39:55.651Z,7.90
2019-05-14T21:42:28.372Z,7.90
2019-05-14T21:44:58.543Z,7.90
2019-05-14T21:47:30.680Z,7.90
2019-05-14T21:50:01.299Z,7.80
2019-05-14T21:52:31.781Z,7.90
2019-05-14T21:55:02.263Z,8.00
2019-05-14T21:57:34.500Z,8.00
2019-05-14T22:00:09.959Z,8.00
2019-05-14T22:02:40.655Z,7.90
2019-05-14T22:05:11.303Z,7.90
2019-05-14T22:07:42.956Z,7.90
2019-05-14T22:10:13.509Z,8.00
2019-05-14T22:12:43.958Z,7.90
2019-05-14T22:15:14.918Z,7.90
2019-05-14T22:17:45.410Z,8.00
2019-05-14T22:20:19.005Z,8.00
2019-05-14T22:22:49.719Z,7.90
2019-05-14T22:25:20.883Z,7.90
2019-05-14T22:27:52.434Z,7.90
2019-05-14T22:30:22.984Z,8.00
2019-05-14T22:32:53.443Z,8.00
2019-05-14T22:35:23.930Z,8.00
2019-05-14T22:37:54.389Z,8.00
2019-05-14T22:40:24.879Z,8.00
2019-05-14T22:42:55.332Z,7.90
2019-05-14T22:45:28.336Z,8.00
2019-05-14T22:47:59.123Z,7.90
2019-05-14T22:50:29.776Z,7.90
2019-05-14T22:53:00.220Z,8.00
2019-05-14T22:55:31.357Z,7.90
2019-05-14T22:58:02.065Z,8.00
2019-05-14T23:00:33.346Z,8.00
2019-05-14T23:03:03.844Z,8.00
2019-05-14T23:05:34.391Z,8.00
2019-05-14T23:08:04.860Z,8.00
2019-05-14T23:10:35.338Z,8.00
2019-05-14T23:13:05.782Z,8.00
2019-05-14T23:15:38.387Z,7.90
2019-05-14T23:18:08.694Z,7.90
2019-05-14T23:20:39.433Z,7.90
2019-05-14T23:23:09.927Z,7.90
2019-05-14T23:25:40.387Z,8.00
2019-05-14T23:28:10.868Z,8.00
2019-05-14T23:30:41.374Z,8.00
2019-05-14T23:33:11.904Z,8.10
2019-05-14T23:35:43.513Z,8.10
2019-05-14T23:38:15.518Z,8.10
2019-05-14T23:40:46.004Z,8.10
2019-05-14T23:43:18.571Z,8.10
2019-05-14T23:45:48.646Z,8.10
2019-05-14T23:48:19.142Z,8.10
2019-05-14T23:50:49.593Z,8.10
2019-05-14T23:53:20.069Z,8.10
2019-05-14T23:55:50.545Z,8.10
2019-05-14T23:58:21.002Z,8.20
